メインページ
METAR-TAF:

METAR-TAF

空港 :

ズヴァルトノッツ国際空港

エレバン, アルメニア

緯度: 40-08-50N, 経度: 044-23-45E, 海抜: 865m

現時点の気象観測

当レポートは10分前の06:30(UTC)に作成
西の風 6kt
気温 7°C
湿度 70%
気圧 1014 hPa
視程10km以上
高度4600ftの雲は散在している

METAR: UDYZ 130630Z 27006KT 9999 SCT046 07/02 Q1014 R09/000065 NOSIG

時間: 10:40 (06:40 UTC)

予報

当レポートは1時間38分前の05:02(UTC)に作成
予報は13日の 06時(UTC)から 14日の 06時(UTC)まで有効
南西の風 8kt
視程: 6000m
高度4000ftの雲は散在している
高度2000ftの千切れ雲あり
13日の 06時(UTC)から 13日の 12時(UTC)まで一時的に
変向風 16kt、最大26ktの突風を伴う
視程: 3500m
高度2000ftの曇り, 積乱雲.
弱いにわか雨, 靄

TAF: UDYZ 130502Z 1306/1406 23008KT 6000 SCT040 BKN020 TEMPO 1306/1312 VRB16G26KT 3500 -SHRA BR OVC020CB

4,000以上の空港の気象観測と天気予報(METAR報とTAF報)

利用可能な観測所は地図上に黄色い丸と赤い丸で示す。

丸の上にカーソルを重ねると観測所名を参照できる。

次にクリックすると気象観測と天気予報を参照できる。

マップの切り替え:黒色「×」印の緑ボタンをクリックして拡大、「-」印の緑ボタンをクリックして縮小、緑色の三角印をクリックして隣りの地図に切り替え


METAR-TAF: